Terminal Aerodrome Forecast
Issued by NWS Charleston, WV

Home | Current Version | Previous Version | Text Only | Print | Product List | Glossary On
Versions: 1 2 3 4 5 6 7 8 9 10 11 12 13 14 15 16 17 18 19 20 21 22 23 24 25 26 27
000
FTUS41 KRLX 212100 AAA
TAFBKW
TAF AMD
KBKW 212110Z 2121/2218 25012G22KT P6SM SCT025
     FM212200 25012G22KT P6SM BKN030
      TEMPO 2122/2123 27015G30KT 2SM TSRA BKN020CB
     FM212300 29012G22KT P6SM VCSH BKN025
     FM220000 29012G22KT P6SM BKN035
      TEMPO 2201/2204 SCT035
     FM220800 31009KT P6SM BKN025=

USA.gov is the U.S. government's official web portal to all federal, state and local government web resources and services.